»·PEaware :: N8DL KMYF-KIFP

N8DL :: KMYF-KIFP

FLIGHT INFORMATION

Flight Status: Arrived
Operator: Privately registered:
United States
More flights under this callsign
Pilot: Dean L. (8400)
Aircraft: CESSNA 525 CITATION JET CJ1
(C525)
More flights by this aircraft type
Origin: KMYF Montgomery
United States
Destination: KIFP Laughlin/Bullhead Intl
United States
More flights between these airports :: More routes between these airports
Route: +MZB V66 CANNO JLI TNP EED
File this flight plan on PilotEdge
Remarks:
Altitude:
(Current/Filed)
23,000ft
Speed:
(Current/Filed)
400kts
Departed: 27-Jul-18 02:53 PM
Arrived: 27-Jul-18 03:38 PM
Distance/Time
Traveled:
189nm/0:45
Distance/Time
To Go:
Arrived

Flight Plot

Page will automatically refresh every two minutes.

Flight plan parsing failed; only flown route is shown


Map Options




Map Legend


Flown Route
Filed Route
Departure Airport
Arrival Airport
Navaid (VOR, NDB)
Fix

Horizontal Profiles

Position Reports

Time Latitude Longitude Heading Altitude Ground
Speed
27-Jul-18 14:39 32.810716 -117.138925 179 431ft 0kts
27-Jul-18 14:40 32.810714 -117.138925 179 431ft 0kts
27-Jul-18 14:41 32.810712 -117.138925 179 431ft 0kts
27-Jul-18 14:42 32.810710 -117.138925 179 431ft 0kts
27-Jul-18 14:43 32.810708 -117.138925 179 431ft 0kts
27-Jul-18 14:44 32.810706 -117.138925 179 431ft 0kts
27-Jul-18 14:45 32.810704 -117.138925 179 431ft 0kts
27-Jul-18 14:46 32.810702 -117.138925 179 431ft 0kts
27-Jul-18 14:47 32.810700 -117.138925 179 431ft 0kts
27-Jul-18 14:48 32.810698 -117.138925 179 431ft 0kts
27-Jul-18 14:49 32.811326 -117.138098 10 431ft 16kts
27-Jul-18 14:50 32.811943 -117.137817 28 431ft 0kts
27-Jul-18 14:51 32.812440 -117.135900 116 431ft 17kts
27-Jul-18 14:52 32.811799 -117.131634 54 431ft 0kts
27-Jul-18 14:53 32.811801 -117.131631 54 431ft 0kts
27-Jul-18 14:54 32.814882 -117.136470 297 431ft 91kts
27-Jul-18 14:55 32.836580 -117.186288 295 2472ft 201kts
27-Jul-18 14:56 32.868048 -117.263212 295 2983ft 258kts
27-Jul-18 14:57 32.896322 -117.333771 297 3548ft 252kts
27-Jul-18 14:58 32.957875 -117.365852 12 7785ft 271kts
27-Jul-18 14:59 32.997883 -117.289492 88 11593ft 294kts
27-Jul-18 15:00 32.997620 -117.183195 78 13002ft 350kts
27-Jul-18 15:01 33.023170 -117.075328 74 12989ft 330kts
27-Jul-18 15:02 33.048467 -116.970747 75 12986ft 327kts
27-Jul-18 15:03 33.073616 -116.866093 75 12983ft 326kts
27-Jul-18 15:04 33.098652 -116.761457 75 14437ft 330kts
27-Jul-18 15:05 33.124470 -116.653116 74 18540ft 348kts
27-Jul-18 15:06 33.175983 -116.555692 32 21680ft 363kts
27-Jul-18 15:07 33.263467 -116.483734 33 22896ft 414kts
27-Jul-18 15:08 33.364351 -116.399815 33 22794ft 461kts
27-Jul-18 15:09 33.471847 -116.310071 33 22754ft 479kts
27-Jul-18 15:10 33.579092 -116.220227 33 22715ft 413kts
27-Jul-18 15:11 33.667810 -116.145794 33 22717ft 398kts
27-Jul-18 15:12 33.758643 -116.069318 33 22717ft 375kts
27-Jul-18 15:13 33.840356 -116.000381 33 22739ft 362kts
27-Jul-18 15:14 33.927819 -115.926428 34 22776ft 406kts
27-Jul-18 15:15 34.017327 -115.850459 33 22795ft 373kts
27-Jul-18 15:16 34.100112 -115.779507 38 22810ft 361kts
27-Jul-18 15:17 34.157815 -115.680967 58 22815ft 376kts
27-Jul-18 15:18 34.214684 -115.569772 58 22852ft 384kts
27-Jul-18 15:19 34.271793 -115.457800 58 22850ft 402kts
27-Jul-18 15:20 34.326757 -115.349718 58 22854ft 383kts
27-Jul-18 15:21 34.385572 -115.233694 58 22838ft 395kts
27-Jul-18 15:22 34.441438 -115.123145 58 22829ft 397kts
27-Jul-18 15:23 34.499516 -115.007849 58 21795ft 378kts
27-Jul-18 15:24 34.551641 -114.904060 59 20544ft 349kts
27-Jul-18 15:25 34.601377 -114.804731 59 19542ft 341kts
27-Jul-18 15:26 34.650484 -114.706380 59 18542ft 340kts
27-Jul-18 15:27 34.699426 -114.608115 59 17545ft 340kts
27-Jul-18 15:28 34.753848 -114.514527 38 16550ft 342kts
27-Jul-18 15:29 34.845745 -114.488499 354 14799ft 355kts
27-Jul-18 15:30 34.944725 -114.502969 351 12816ft 361kts
27-Jul-18 15:31 35.028779 -114.515832 353 10792ft 266kts
27-Jul-18 15:32 35.099963 -114.514595 1 8834ft 241kts
27-Jul-18 15:33 35.161829 -114.510934 1 6657ft 217kts
27-Jul-18 15:34 35.219873 -114.510055 354 4763ft 204kts
27-Jul-18 15:35 35.247020 -114.537526 225 3430ft 127kts
27-Jul-18 15:36 35.218232 -114.560469 197 2428ft 116kts
27-Jul-18 15:37 35.185944 -114.564188 169 1320ft 111kts
27-Jul-18 15:38 35.159885 -114.559867 177 645ft 58kts
27-Jul-18 15:39 35.155905 -114.558960 104 645ft 0kts
27-Jul-18 15:40 35.158769 -114.558297 355 645ft 19kts
27-Jul-18 15:41 35.163026 -114.556683 71 645ft 11kts
27-Jul-18 15:42 35.163551 -114.556215 66 645ft 0kts
27-Jul-18 15:43 35.163878 -114.556220 341 645ft 1kts
27-Jul-18 15:44 35.164281 -114.556382 341 645ft 0kts
27-Jul-18 15:45 35.164864 -114.557316 301 645ft 6kts
27-Jul-18 15:46 35.166199 -114.559099 310 645ft 5kts
27-Jul-18 15:47 35.151981 -114.559289 179 832ft 145kts
27-Jul-18 15:48 35.126083 -114.536850 47 2082ft 178kts
27-Jul-18 15:49 35.175820 -114.531169 356 2653ft 157kts
27-Jul-18 15:50 35.212883 -114.539383 276 2456ft 131kts
27-Jul-18 15:51 35.187358 -114.560901 183 1274ft 111kts
27-Jul-18 15:52 35.160682 -114.560275 174 656ft 106kts
27-Jul-18 15:53 35.123243 -114.553433 108 2575ft 154kts

Navigation Log

Ident Type
Flight plan parsing failed, navigation log unavailable